Time;durP1;ratioP1;P1;durP2;ratioP2;P2;SDS_P1;SDS_P2;PMS_P1;PMS_P2;Temp;Humidity;BMP_temperature;BMP_pressure;BME280_temperature;BME280_humidity;BME280_pressure;Samples;Min_cycle;Max_cycle;Signal;HPM_P1;HPM_P2
2021/06/30 00:00:45;;;;;;;20.33;10.37;;;;;;;22.89;62.31;100210.59;125235;1102;104156;-76
2021/06/30 00:03:21;;;;;;;20.13;10.57;;;;;;;22.89;62.30;100217.72;125261;1102;104182;-76
2021/06/30 00:05:53;;;;;;;21.37;9.87;;;;;;;22.80;61.93;100206.30;125177;1102;105528;-77
2021/06/30 00:08:24;;;;;;;24.43;11.17;;;;;;;22.73;62.31;100211.79;125248;1100;104146;-75
2021/06/30 00:10:55;;;;;;;18.53;9.97;;;;;;;22.66;62.33;100213.70;125207;1102;104242;-76
2021/06/30 00:13:26;;;;;;;20.03;10.53;;;;;;;22.63;62.62;100207.55;125222;1100;104252;-77
2021/06/30 00:15:58;;;;;;;19.80;10.17;;;;;;;22.60;63.20;100212.02;125332;1099;104210;-76
2021/06/30 00:18:29;;;;;;;18.77;10.37;;;;;;;22.54;63.07;100212.12;125647;1099;104281;-77
2021/06/30 00:21:08;;;;;;;23.17;10.53;;;;;;;22.50;62.75;100215.79;126308;1099;104204;-75
2021/06/30 00:23:39;;;;;;;18.53;10.43;;;;;;;22.43;62.71;100212.31;125405;1099;104300;-75
2021/06/30 00:26:11;;;;;;;21.67;11.33;;;;;;;22.36;63.19;100209.78;125778;1098;104316;-76
2021/06/30 00:28:44;;;;;;;19.97;10.83;;;;;;;22.30;63.70;100204.50;126301;1099;104226;-75
2021/06/30 00:31:16;;;;;;;20.85;10.75;;;;;;;22.22;63.08;100208.21;126292;1099;104223;-75
2021/06/30 00:33:49;;;;;;;18.60;10.27;;;;;;;22.17;63.41;100211.86;126339;1098;104168;-75
2021/06/30 00:36:23;;;;;;;19.13;10.47;;;;;;;22.11;63.83;100202.17;125298;1099;104293;-75
2021/06/30 00:38:53;;;;;;;21.07;11.17;;;;;;;22.08;64.21;100213.78;126255;1098;104182;-76
2021/06/30 00:41:24;;;;;;;20.00;10.67;;;;;;;22.11;63.96;100212.86;126283;1099;104140;-76
2021/06/30 00:43:55;;;;;;;18.07;9.50;;;;;;;22.17;64.04;100210.05;126319;1098;104264;-76
2021/06/30 00:46:31;;;;;;;19.23;10.10;;;;;;;22.22;63.91;100208.21;125206;1099;104210;-77
2021/06/30 00:49:03;;;;;;;17.60;10.03;;;;;;;22.27;63.87;100224.17;126287;1099;104178;-75
2021/06/30 00:51:34;;;;;;;19.17;10.17;;;;;;;22.19;64.05;100221.62;126308;1099;104175;-76
2021/06/30 00:54:05;;;;;;;19.60;9.83;;;;;;;22.11;64.63;100228.89;125352;1099;104230;-75
2021/06/30 00:56:36;;;;;;;19.43;9.80;;;;;;;22.05;64.72;100228.99;126235;1099;104155;-75
2021/06/30 00:59:07;;;;;;;15.90;10.20;;;;;;;22.00;64.07;100230.83;125442;1099;104261;-76
2021/06/30 01:01:38;;;;;;;19.50;10.10;;;;;;;21.97;65.24;100230.87;126313;1099;104370;-76
2021/06/30 01:04:09;;;;;;;17.60;10.07;;;;;;;21.99;64.77;100231.76;126359;1099;104274;-77
2021/06/30 01:06:40;;;;;;;19.23;9.50;;;;;;;22.07;65.30;100227.16;125184;1099;104139;-77
2021/06/30 01:09:11;;;;;;;19.67;9.10;;;;;;;22.14;65.24;100223.47;126358;1098;104216;-76
2021/06/30 01:11:43;;;;;;;20.10;10.40;;;;;;;22.14;65.01;100227.94;125442;1099;104213;-76
2021/06/30 01:14:23;;;;;;;19.07;9.37;;;;;;;22.18;65.06;100224.33;125512;1099;104172;-77
2021/06/30 01:16:54;;;;;;;20.60;10.33;;;;;;;22.19;64.82;100218.05;126272;1099;104669;-76
2021/06/30 01:19:27;;;;;;;20.60;9.73;;;;;;;22.26;65.21;100217.92;126334;1099;104771;-77
2021/06/30 01:21:59;;;;;;;17.30;9.97;;;;;;;22.30;65.30;100216.13;126369;1099;104219;-77
2021/06/30 01:24:30;;;;;;;20.47;10.17;;;;;;;22.29;65.72;100214.33;126345;1099;104194;-77
2021/06/30 01:27:00;;;;;;;19.53;9.83;;;;;;;22.29;64.87;100211.66;126211;1099;104284;-76
2021/06/30 01:29:31;;;;;;;17.40;9.70;;;;;;;22.23;65.07;100203.73;126345;1099;104182;-76
2021/06/30 01:32:02;;;;;;;16.83;9.73;;;;;;;22.19;65.26;100208.27;126322;1099;104185;-77
2021/06/30 01:34:33;;;;;;;20.17;9.80;;;;;;;22.21;65.54;100208.23;125267;1099;104229;-76
2021/06/30 01:37:04;;;;;;;17.80;9.30;;;;;;;22.22;65.89;100210.89;126273;1099;105579;-77
2021/06/30 01:39:34;;;;;;;18.40;9.80;;;;;;;22.26;65.71;100209.91;125200;1099;104242;-76
2021/06/30 01:42:06;;;;;;;23.47;10.03;;;;;;;22.32;66.12;100214.30;126333;1099;104149;-76
2021/06/30 01:44:36;;;;;;;20.23;9.33;;;;;;;22.35;66.10;100208.03;126321;1099;104599;-76
2021/06/30 01:47:07;;;;;;;17.40;9.63;;;;;;;22.36;66.19;100213.36;126322;1099;104159;-77
2021/06/30 01:49:40;;;;;;;18.63;9.70;;;;;;;22.37;65.59;100209.75;125689;1099;118904;-76
2021/06/30 01:52:17;;;;;;;18.92;9.68;;;;;;;22.36;65.25;100212.45;126298;1099;104136;-77
2021/06/30 01:54:47;;;;;;;18.53;9.17;;;;;;;22.34;66.19;100211.61;126365;1099;104162;-76
2021/06/30 01:57:18;;;;;;;22.07;10.73;;;;;;;22.31;65.94;100214.33;126273;1099;104210;-77
2021/06/30 01:59:49;;;;;;;18.93;10.13;;;;;;;22.26;66.47;100211.70;126343;1099;104217;-77
2021/06/30 02:02:19;;;;;;;19.27;10.13;;;;;;;22.24;66.47;100211.73;126366;1099;104213;-77
2021/06/30 02:05:00;;;;;;;46.63;13.80;;;;;;;22.24;65.66;100203.72;125224;1099;104294;-76
2021/06/30 02:07:31;;;;;;;23.87;10.40;;;;;;;22.22;65.91;100208.21;126347;1099;104275;-76
2021/06/30 02:10:05;;;;;;;18.27;10.07;;;;;;;22.23;65.93;100203.73;126307;1099;108166;-77
2021/06/30 02:12:35;;;;;;;;;;;;;;;22.25;66.97;100205.48;126396;1099;104245;-77
2021/06/30 02:15:08;;;;;;;19.43;10.00;;;;;;;22.23;66.71;100209.95;125374;1099;104213;-76
2021/06/30 02:17:38;;;;;;;15.75;9.15;;;;;;;22.23;66.20;100207.28;126271;1099;104165;-75
2021/06/30 02:20:12;;;;;;;18.77;9.70;;;;;;;22.23;66.27;100215.30;125624;1099;104182;-76
2021/06/30 02:22:44;;;;;;;16.52;10.20;;;;;;;22.19;66.21;100223.39;125648;1099;104178;-77
2021/06/30 02:25:18;;;;;;;18.53;10.70;;;;;;;22.18;66.49;100222.52;125645;1099;104165;-77
2021/06/30 02:27:50;;;;;;;18.67;10.57;;;;;;;22.19;66.60;100224.30;126345;1099;104246;-76
2021/06/30 02:30:24;;;;;;;19.32;10.90;;;;;;;22.22;67.11;100215.33;126181;1099;108262;-76
2021/06/30 02:32:57;;;;;;;23.20;11.30;;;;;;;22.21;66.32;100225.14;126349;1099;104150;-77
2021/06/30 02:35:28;;;;;;;20.33;11.27;;;;;;;22.24;66.91;100227.77;126379;1099;104140;-77
2021/06/30 02:38:02;;;;;;;17.63;10.80;;;;;;;22.25;66.90;100229.54;126371;1099;104165;-76
2021/06/30 02:40:33;;;;;;;18.10;10.70;;;;;;;22.32;67.01;100240.16;126248;1098;104669;-77
2021/06/30 02:43:05;;;;;;;18.60;10.43;;;;;;;22.34;67.34;100224.97;126335;1098;104240;-76
2021/06/30 02:45:35;;;;;;;22.70;11.03;;;;;;;22.36;66.58;100228.48;126360;1099;104140;-77
2021/06/30 02:48:06;;;;;;;20.20;10.47;;;;;;;22.37;66.86;100225.79;125194;1099;104133;-77
2021/06/30 02:50:37;;;;;;;21.30;11.27;;;;;;;22.39;66.94;100228.44;126307;1099;104156;-76
2021/06/30 02:53:07;;;;;;;20.60;10.60;;;;;;;22.44;67.04;100237.28;126331;1099;104194;-76
2021/06/30 02:55:38;;;;;;;19.73;10.70;;;;;;;22.44;66.88;100231.94;126313;1098;104142;-77
2021/06/30 02:58:09;;;;;;;23.43;10.60;;;;;;;22.47;66.84;100237.23;126326;1099;104175;-77
2021/06/30 03:00:39;;;;;;;20.53;10.47;;;;;;;22.48;66.96;100233.63;125200;1099;104185;-77
2021/06/30 03:03:10;;;;;;;18.90;10.23;;;;;;;22.53;67.57;100226.42;126330;1099;104188;-76
2021/06/30 03:05:41;;;;;;;22.57;10.50;;;;;;;22.56;67.06;100233.49;125300;1099;104149;-77
2021/06/30 03:08:12;;;;;;;24.60;10.37;;;;;;;22.62;66.75;100233.38;126333;1099;104322;-76
2021/06/30 03:10:42;;;;;;;20.70;11.43;;;;;;;22.61;66.70;100229.84;126241;1099;104147;-77
2021/06/30 03:13:13;;;;;;;21.07;10.83;;;;;;;22.63;67.28;100237.83;125223;1099;104239;-77
2021/06/30 03:15:44;;;;;;;21.53;10.90;;;;;;;22.65;67.07;100230.66;126367;1099;104242;-76
2021/06/30 03:18:15;;;;;;;21.47;11.07;;;;;;;22.67;67.12;100223.47;125290;1099;104223;-77
2021/06/30 03:20:46;;;;;;;20.23;10.50;;;;;;;22.73;67.26;100222.48;125243;1099;104163;-77
2021/06/30 03:23:17;;;;;;;22.07;11.03;;;;;;;22.75;67.21;100220.66;126353;1099;104143;-76
2021/06/30 03:25:47;;;;;;;19.77;11.27;;;;;;;22.74;67.22;100222.46;126338;1099;104145;-77
2021/06/30 03:28:18;;;;;;;20.03;11.20;;;;;;;22.74;66.56;100224.27;126361;1099;104303;-76
2021/06/30 03:30:49;;;;;;;20.63;11.00;;;;;;;22.71;66.71;100226.99;125345;1099;104205;-76
2021/06/30 03:33:20;;;;;;;26.27;12.23;;;;;;;22.66;66.89;100223.50;126324;1099;104219;-77
2021/06/30 03:35:51;;;;;;;30.17;12.37;;;;;;;22.63;66.81;100220.91;125384;1099;104197;-77
2021/06/30 03:38:22;;;;;;;28.60;11.40;;;;;;;22.62;67.38;100222.69;126341;1099;104156;-76
2021/06/30 03:40:53;;;;;;;25.47;12.47;;;;;;;22.65;67.45;100211.06;125225;1099;104140;-76
2021/06/30 03:43:26;;;;;;;27.70;12.53;;;;;;;22.65;67.13;100209.26;126323;1099;104143;-77
2021/06/30 03:45:59;;;;;;;23.87;11.87;;;;;;;22.64;67.34;100212.86;125699;1099;104226;-76
2021/06/30 03:48:30;;;;;;;26.90;13.23;;;;;;;22.63;67.21;100207.55;126267;1099;104220;-76
2021/06/30 03:51:01;;;;;;;24.80;12.70;;;;;;;22.64;66.99;100201.27;126240;1099;105471;-75
2021/06/30 03:53:31;;;;;;;27.00;13.47;;;;;;;22.68;67.16;100208.33;126320;1099;104238;-75
2021/06/30 03:56:02;;;;;;;28.40;14.47;;;;;;;22.73;67.31;100196.61;126068;1099;104127;-76
2021/06/30 03:58:33;;;;;;;28.07;15.00;;;;;;;22.78;67.71;100200.11;126278;1099;104139;-77
2021/06/30 04:01:03;;;;;;;23.30;14.30;;;;;;;22.86;67.31;100196.37;125202;1099;104146;-77
2021/06/30 04:03:34;;;;;;;29.95;15.35;;;;;;;22.95;67.72;100197.09;126322;1099;104564;-77
2021/06/30 04:06:05;;;;;;;31.70;15.70;;;;;;;23.03;67.49;100198.72;126363;1099;105442;-77
2021/06/30 04:08:36;;;;;;;34.10;15.70;;;;;;;23.10;67.89;100203.08;126322;1099;104290;-79
2021/06/30 04:11:07;;;;;;;32.57;17.53;;;;;;;23.16;67.31;100197.59;126296;1099;104321;-78
2021/06/30 04:13:37;;;;;;;34.20;17.13;;;;;;;23.20;67.38;100201.95;126353;1098;104246;-78
2021/06/30 04:16:08;;;;;;;36.90;18.50;;;;;;;23.28;67.47;100204.47;126297;1099;104137;-78
2021/06/30 04:18:40;;;;;;;43.17;19.23;;;;;;;23.35;67.42;100202.56;126369;1099;104153;-78
2021/06/30 04:21:11;;;;;;;34.60;16.77;;;;;;;23.42;67.54;100205.07;126332;1099;104233;-77
2021/06/30 04:23:42;;;;;;;32.23;16.93;;;;;;;23.49;67.44;100203.13;126340;1099;104176;-78
2021/06/30 04:26:13;;;;;;;31.67;16.87;;;;;;;23.59;67.41;100198.44;126350;1099;104239;-78
2021/06/30 04:28:44;;;;;;;36.53;15.30;;;;;;;23.66;67.27;100200.07;126352;1098;104146;-78
2021/06/30 04:31:15;;;;;;;31.27;15.67;;;;;;;23.72;67.42;100193.67;126209;1099;104264;-78
2021/06/30 04:33:47;;;;;;;29.27;16.13;;;;;;;23.75;67.44;100193.59;126377;1099;104139;-77
2021/06/30 04:36:18;;;;;;;35.00;16.80;;;;;;;23.78;67.49;100194.43;126339;1099;104171;-78
2021/06/30 04:38:49;;;;;;;37.80;17.87;;;;;;;23.86;67.27;100191.60;126360;1099;104137;-77
2021/06/30 04:41:20;;;;;;;36.57;18.17;;;;;;;23.92;67.21;100196.81;126245;1099;104236;-78
2021/06/30 04:43:51;;;;;;;32.63;18.53;;;;;;;24.00;67.23;100193.95;126317;1099;104570;-78
2021/06/30 04:46:22;;;;;;;33.60;18.60;;;;;;;24.10;67.37;100195.46;126322;1099;104226;-78
2021/06/30 04:48:52;;;;;;;37.13;19.30;;;;;;;24.15;66.89;100198.02;126234;1098;104251;-77
2021/06/30 04:51:24;;;;;;;40.10;18.43;;;;;;;24.20;67.21;100188.96;126308;1099;104166;-78
2021/06/30 04:53:54;;;;;;;35.00;18.33;;;;;;;24.30;67.13;100192.28;126360;1099;104245;-76
2021/06/30 04:56:28;;;;;;;38.93;18.20;;;;;;;24.37;66.92;100191.20;126343;1099;104152;-78
2021/06/30 04:59:08;;;;;;;33.75;17.95;;;;;;;24.44;67.04;100191.92;126367;1099;104127;-78
2021/06/30 05:01:39;;;;;;;36.97;16.70;;;;;;;24.50;66.99;100183.70;126264;1099;104248;-79
2021/06/30 05:04:09;;;;;;;34.17;17.27;;;;;;;24.57;66.96;100190.72;126303;1099;104149;-77
2021/06/30 05:06:41;;;;;;;33.73;15.60;;;;;;;24.64;67.01;100191.42;126249;1098;104201;-76
2021/06/30 05:09:12;;;;;;;46.53;18.80;;;;;;;24.72;67.09;100188.53;126280;1099;104201;-77
2021/06/30 05:11:42;;;;;;;36.30;17.10;;;;;;;24.77;67.05;100181.22;126189;1099;104140;-76
2021/06/30 05:14:13;;;;;;;47.37;18.97;;;;;;;24.80;66.96;100185.63;126256;1099;104200;-77
2021/06/30 05:16:44;;;;;;;42.50;20.87;;;;;;;24.82;66.59;100190.01;125370;1099;104281;-77
2021/06/30 05:19:17;;;;;;;38.03;20.17;;;;;;;24.86;66.53;100180.96;126215;1099;104281;-77
2021/06/30 05:21:49;;;;;;;41.20;19.83;;;;;;;24.88;66.45;100181.78;126211;1098;104136;-79
2021/06/30 05:24:23;;;;;;;43.63;20.60;;;;;;;24.94;66.50;100178.06;125395;1099;104185;-78
2021/06/30 05:26:56;;;;;;;40.73;19.75;;;;;;;25.01;66.60;100179.66;126102;1099;104168;-78
2021/06/30 05:29:32;;;;;;;44.60;21.17;;;;;;;25.10;66.25;100183.85;125341;1099;104207;-76
2021/06/30 05:32:05;;;;;;;36.58;17.82;;;;;;;25.18;66.22;100187.21;125304;1099;104255;-77
2021/06/30 05:34:39;;;;;;;21.45;9.78;;;;;;;25.28;65.95;100191.40;126170;1099;104175;-77
2021/06/30 05:37:13;;;;;;;26.60;12.77;;;;;;;25.36;65.87;100196.54;126331;1099;104251;-80
2021/06/30 05:39:47;;;;;;;46.03;20.73;;;;;;;25.43;66.04;100198.12;126061;1099;102960;-79
2021/06/30 05:42:20;;;;;;;40.63;19.60;;;;;;;25.47;66.22;100194.39;126156;1099;104156;-79
2021/06/30 05:44:54;;;;;;;37.97;18.60;;;;;;;25.51;65.99;100200.58;125302;1099;104175;-79
2021/06/30 05:47:23;;;;;;;;;;;;;;;25.56;65.21;100190.55;126220;1099;104287;-77
2021/06/30 05:49:56;;;;;;;37.70;18.00;;;;;;;25.62;65.79;100190.36;125960;1099;104201;-76
2021/06/30 05:52:30;;;;;;;37.27;17.03;;;;;;;25.69;65.64;100204.48;125958;1099;104171;-78
2021/06/30 05:55:07;;;;;;;42.83;17.47;;;;;;;25.74;65.31;100205.23;126016;1099;104165;-77
2021/06/30 05:57:39;;;;;;;32.30;16.70;;;;;;;25.82;65.61;100204.95;126059;1099;104265;-77
2021/06/30 06:00:16;;;;;;;20.63;9.73;;;;;;;25.89;65.08;100203.84;125334;1099;104226;-77
2021/06/30 06:02:48;;;;;;;19.13;9.00;;;;;;;25.97;65.31;100203.59;126181;1099;104187;-78
2021/06/30 06:05:23;;;;;;;17.97;8.73;;;;;;;26.04;65.17;100205.19;126090;1099;104290;-77
2021/06/30 06:07:57;;;;;;;19.97;9.40;;;;;;;26.10;64.82;100198.72;126181;1100;104233;-76
2021/06/30 06:10:33;;;;;;;15.17;9.17;;;;;;;26.16;64.78;100199.41;126137;1099;104217;-77
2021/06/30 06:13:09;;;;;;;18.83;9.03;;;;;;;26.25;64.57;100200.02;126119;1099;104232;-77
2021/06/30 06:15:42;;;;;;;15.70;9.50;;;;;;;26.27;64.12;100193.67;126140;1098;104223;-77
2021/06/30 06:18:19;;;;;;;17.07;8.73;;;;;;;26.29;64.31;100193.62;126118;1099;104150;-78
2021/06/30 06:20:52;;;;;;;16.33;9.17;;;;;;;26.32;63.89;100196.20;126165;1099;104150;-79
2021/06/30 06:23:25;;;;;;;18.43;9.67;;;;;;;26.35;63.91;100198.75;126084;1099;104294;-77
2021/06/30 06:26:01;;;;;;;18.37;9.55;;;;;;;26.43;63.85;100199.39;126166;1099;104172;-78
2021/06/30 06:28:35;;;;;;;19.13;9.77;;;;;;;26.51;63.72;100199.99;126102;1098;104233;-78
2021/06/30 06:34:33;;;;;;;20.97;9.20;;;;;;;26.65;64.00;100198.64;125963;1099;104163;-78
2021/06/30 06:37:09;;;;;;;18.00;9.57;;;;;;;26.73;63.66;100199.27;126056;1099;104249;-78
2021/06/30 06:39:44;;;;;;;18.30;10.30;;;;;;;26.77;63.56;100195.55;126161;1099;104140;-77
2021/06/30 06:42:17;;;;;;;19.10;10.43;;;;;;;26.84;63.75;100190.80;125329;1099;104201;-79
2021/06/30 06:44:54;;;;;;;18.00;9.77;;;;;;;26.90;63.47;100190.58;126129;1099;104146;-78
2021/06/30 06:47:29;;;;;;;17.50;9.80;;;;;;;26.99;63.35;100189.34;126049;1099;104146;-78
2021/06/30 06:50:03;;;;;;;19.23;9.63;;;;;;;27.08;62.97;100189.00;126267;1099;104178;-79
2021/06/30 06:52:35;;;;;;;20.93;10.43;;;;;;;27.19;63.12;100181.41;126322;1099;104153;-79
2021/06/30 06:55:14;;;;;;;27.55;11.57;;;;;;;27.27;62.86;100186.50;126273;1099;104172;-79
2021/06/30 06:57:46;;;;;;;21.10;10.13;;;;;;;27.35;63.14;100180.86;126186;1098;104176;-80
2021/06/30 07:00:20;;;;;;;20.17;9.47;;;;;;;27.42;62.88;100175.13;125272;1099;104194;-77
2021/06/30 07:02:53;;;;;;;21.47;11.63;;;;;;;27.51;62.78;100176.60;126115;1099;104153;-78
2021/06/30 07:05:25;;;;;;;21.90;10.07;;;;;;;27.62;62.58;100181.56;126165;1099;104189;-79
2021/06/30 07:08:01;;;;;;;21.87;11.27;;;;;;;27.72;62.66;100179.36;126225;1098;104175;-78
2021/06/30 07:10:38;;;;;;;20.07;10.87;;;;;;;27.80;62.59;100174.56;126194;1098;104399;-79
2021/06/30 07:13:13;;;;;;;20.73;10.83;;;;;;;27.90;62.28;100166.96;126246;1098;104310;-77
2021/06/30 07:15:49;;;;;;;22.23;10.63;;;;;;;27.99;62.32;100169.31;126140;1099;105887;-77
2021/06/30 07:18:21;;;;;;;24.40;11.43;;;;;;;28.09;62.09;100167.09;126165;1099;104125;-79
2021/06/30 07:20:57;;;;;;;20.47;11.37;;;;;;;28.22;62.10;100168.34;126284;1099;104268;-78
2021/06/30 07:23:31;;;;;;;22.80;10.60;;;;;;;28.39;61.76;100164.91;126218;1099;104312;-80
2021/06/30 07:26:10;;;;;;;23.03;10.30;;;;;;;28.55;61.71;100164.21;126139;1099;105319;-84
2021/06/30 07:28:49;;;;;;;20.07;10.07;;;;;;;28.71;61.62;100157.23;125400;1099;104139;-80
2021/06/30 07:31:24;;;;;;;19.47;9.20;;;;;;;28.86;61.29;100151.13;125310;1100;104223;-78
2021/06/30 07:33:58;;;;;;;16.40;9.70;;;;;;;29.03;61.12;100154.86;126260;1099;104143;-78
2021/06/30 07:36:29;;;;;;;18.03;9.70;;;;;;;29.13;60.80;100156.20;126305;1099;108760;-77
2021/06/30 07:39:08;;;;;;;15.80;10.10;;;;;;;29.31;60.72;100149.09;126213;1099;104465;-77
2021/06/30 07:41:42;;;;;;;21.33;9.70;;;;;;;29.48;60.32;100150.09;126120;1099;104248;-79
2021/06/30 07:44:14;;;;;;;16.80;10.17;;;;;;;29.58;60.12;100154.11;126260;1099;104325;-78
2021/06/30 07:46:47;;;;;;;19.48;10.20;;;;;;;29.70;60.01;100150.80;126285;1099;119456;-77
2021/06/30 07:49:22;;;;;;;16.27;9.88;;;;;;;29.81;59.92;100146.70;126281;1099;104220;-78
2021/06/30 07:51:55;;;;;;;18.55;10.15;;;;;;;29.98;59.67;100149.45;126066;1099;104201;-79
2021/06/30 07:54:34;;;;;;;19.17;10.03;;;;;;;30.09;59.60;100147.07;126279;1099;104662;-77
2021/06/30 07:57:06;;;;;;;24.87;10.40;;;;;;;30.24;59.45;100148.09;126127;1098;104166;-77
2021/06/30 07:59:37;;;;;;;19.50;10.23;;;;;;;30.35;59.12;100152.95;125925;1099;104140;-76
2021/06/30 08:02:12;;;;;;;20.77;9.80;;;;;;;30.46;58.79;100145.20;126267;1099;104182;-77
2021/06/30 08:04:59;;;;;;;18.90;10.10;;;;;;;30.55;58.61;100142.95;126134;1098;104172;-77
2021/06/30 08:07:34;;;;;;;19.63;9.97;;;;;;;30.63;58.37;100140.70;125260;1099;110579;-78
2021/06/30 08:10:09;;;;;;;19.60;10.17;;;;;;;30.74;58.10;100140.98;125204;1102;104324;-76
2021/06/30 08:12:49;;;;;;;23.70;10.00;;;;;;;30.89;57.88;100147.42;125304;1099;105741;-76
2021/06/30 08:15:24;;;;;;;17.67;10.00;;;;;;;31.06;57.51;100148.37;125290;1099;104729;-79
2021/06/30 08:18:04;;;;;;;18.47;10.23;;;;;;;31.27;57.30;100139.02;125176;1099;104236;-77
2021/06/30 08:20:41;;;;;;;19.77;10.37;;;;;;;31.44;57.06;100131.77;125270;1099;104222;-76
2021/06/30 08:23:16;;;;;;;16.30;9.50;;;;;;;31.56;56.83;100135.66;125214;1102;104470;-77
2021/06/30 08:25:51;;;;;;;16.80;10.33;;;;;;;31.69;56.56;100136.68;125161;1102;104341;-79
2021/06/30 08:28:27;;;;;;;19.70;9.97;;;;;;;31.74;56.32;100136.41;125189;1099;106950;-77
2021/06/30 08:31:10;;;;;;;19.30;10.00;;;;;;;31.79;56.11;100127.05;125093;1099;104220;-75
2021/06/30 08:33:41;;;;;;;19.97;9.93;;;;;;;31.86;55.85;100128.42;125152;1102;104181;-76
2021/06/30 08:36:13;;;;;;;24.37;10.77;;;;;;;31.99;55.49;100124.98;125112;1099;104172;-78
2021/06/30 08:38:45;;;;;;;18.80;9.40;;;;;;;32.17;55.35;100131.19;125419;1099;104209;-77
2021/06/30 08:41:20;;;;;;;17.92;10.18;;;;;;;32.24;55.13;100135.26;126254;1099;104169;-78
2021/06/30 08:43:57;;;;;;;16.80;10.10;;;;;;;32.30;54.52;100126.74;126161;1099;104165;-77
2021/06/30 08:46:32;;;;;;;17.27;9.17;;;;;;;32.37;54.38;100132.70;126183;1099;104192;-78
2021/06/30 08:49:06;;;;;;;17.87;10.10;;;;;;;32.48;54.05;100145.61;126140;1099;104165;-79
2021/06/30 08:51:44;;;;;;;17.50;9.13;;;;;;;32.55;53.50;100146.96;125304;1099;104172;-77
2021/06/30 08:54:18;;;;;;;18.07;9.60;;;;;;;32.64;53.31;100134.67;125201;1099;104166;-77
2021/06/30 08:56:50;;;;;;;15.43;9.10;;;;;;;32.75;52.99;100140.33;125315;1099;104239;-77
2021/06/30 08:59:24;;;;;;;16.87;9.70;;;;;;;32.78;52.85;100140.13;126004;1099;104159;-76
2021/06/30 09:01:55;;;;;;;15.10;9.17;;;;;;;32.78;52.59;100123.84;126047;1099;104382;-75
2021/06/30 09:04:29;;;;;;;17.57;9.77;;;;;;;32.85;52.42;100127.92;126167;1099;104255;-76
2021/06/30 09:07:03;;;;;;;18.53;10.13;;;;;;;32.92;52.17;100121.11;125741;1099;104233;-75
2021/06/30 09:09:40;;;;;;;16.40;9.47;;;;;;;33.04;52.11;100126.75;125241;1099;104174;-74
2021/06/30 09:12:12;;;;;;;16.13;9.93;;;;;;;33.12;51.84;100118.97;125308;1099;104226;-75
2021/06/30 09:14:44;;;;;;;18.53;10.57;;;;;;;33.19;51.66;100128.48;125294;1099;104421;-75
2021/06/30 09:17:19;;;;;;;16.27;9.97;;;;;;;33.20;51.30;100119.37;125264;1099;104216;-75
2021/06/30 09:20:03;;;;;;;18.63;10.40;;;;;;;33.22;51.30;100114.69;125389;1099;104299;-76
2021/06/30 09:22:44;;;;;;;17.43;9.93;;;;;;;33.24;50.96;100123.64;126072;1099;104334;-76
2021/06/30 09:25:31;;;;;;;17.97;9.83;;;;;;;33.34;50.77;100110.31;126177;1099;104146;-76
2021/06/30 09:28:13;;;;;;;14.60;9.40;;;;;;;33.42;50.41;100113.39;126122;1099;104337;-78
2021/06/30 09:31:01;;;;;;;14.45;9.50;;;;;;;33.46;50.07;100105.92;126168;1099;104163;-76
2021/06/30 09:33:50;;;;;;;18.20;9.57;;;;;;;33.53;50.11;100098.22;126164;1099;105034;-77
2021/06/30 09:36:23;;;;;;;17.30;9.67;;;;;;;33.58;49.86;100101.49;126175;1099;104597;-77
2021/06/30 09:38:56;;;;;;;18.05;9.50;;;;;;;33.60;49.66;100105.87;126172;1099;104211;-77
2021/06/30 09:41:30;;;;;;;15.17;8.67;;;;;;;33.62;49.13;100090.30;126183;1099;104156;-78
2021/06/30 09:44:08;;;;;;;14.27;8.83;;;;;;;33.68;48.86;100087.17;126110;1099;104134;-76
2021/06/30 09:46:42;;;;;;;15.60;8.80;;;;;;;33.81;48.90;100089.95;126158;1099;104179;-77
2021/06/30 09:49:15;;;;;;;13.97;8.63;;;;;;;33.84;48.55;100084.31;125539;1099;101766;-76
2021/06/30 09:51:49;;;;;;;11.80;8.07;;;;;;;33.89;48.34;100083.99;125382;1098;104203;-77
2021/06/30 09:54:30;;;;;;;15.65;8.30;;;;;;;33.91;47.87;100073.89;126036;1099;104271;-77
2021/06/30 09:57:06;;;;;;;14.77;8.37;;;;;;;33.91;47.73;100076.62;125256;1099;104179;-76
2021/06/30 09:59:39;;;;;;;12.47;7.67;;;;;;;33.95;47.55;100075.41;125141;1099;104745;-77
2021/06/30 10:02:14;;;;;;;12.87;7.80;;;;;;;34.00;46.90;100072.38;125214;1099;104134;-75
2021/06/30 10:04:48;;;;;;;15.13;7.90;;;;;;;34.08;46.90;100072.73;125166;1102;104338;-75
2021/06/30 10:07:31;;;;;;;12.73;7.60;;;;;;;34.10;46.57;100078.93;125233;1099;104146;-76
2021/06/30 10:10:08;;;;;;;12.70;7.90;;;;;;;34.15;46.61;100071.30;125246;1099;104233;-76
2021/06/30 10:12:41;;;;;;;14.57;7.40;;;;;;;34.19;46.41;100059.23;125148;1099;104197;-77
2021/06/30 10:15:16;;;;;;;12.13;7.70;;;;;;;34.19;45.79;100063.81;125157;1102;104182;-76
2021/06/30 10:17:58;;;;;;;12.10;7.50;;;;;;;34.19;45.21;100066.54;125151;1099;104134;-76
2021/06/30 10:20:31;;;;;;;12.17;7.83;;;;;;;34.19;45.59;100058.38;125214;1099;104313;-77
2021/06/30 10:23:07;;;;;;;13.10;7.00;;;;;;;34.19;45.46;100052.92;125059;1100;104207;-75
2021/06/30 10:25:39;;;;;;;12.30;7.42;;;;;;;34.23;45.22;100051.71;125188;1099;104222;-74
2021/06/30 10:28:11;;;;;;;13.77;7.30;;;;;;;34.26;45.09;100050.67;125390;1099;104162;-74
2021/06/30 10:30:48;;;;;;;13.70;7.30;;;;;;;34.28;44.75;100055.00;126008;1099;111478;-75
2021/06/30 10:33:31;;;;;;;;;;;;;;;34.34;44.67;100051.84;126278;1099;104332;-79
2021/06/30 10:36:05;;;;;;;;;;;;;;;34.36;44.35;100047.19;126100;1099;104178;-77
2021/06/30 10:38:48;;;;;;;;;;;;;;;34.39;43.86;100052.41;126113;1099;104143;-74
2021/06/30 10:41:28;;;;;;;;;;;;;;;34.44;43.74;100053.92;126127;1099;104169;-77
2021/06/30 10:44:15;;;;;;;;;;;;;;;34.44;42.81;100043.02;126192;1099;104329;-77
2021/06/30 10:46:46;;;;;;;;;;;;;;;34.45;41.97;100039.33;126320;1098;104233;-76
2021/06/30 10:49:20;;;;;;;;;;;;;;;34.47;42.54;100043.70;126225;1099;104204;-76
2021/06/30 10:51:54;;;;;;;;;;;;;;;34.47;42.66;100040.08;125241;1102;104272;-76
2021/06/30 10:54:36;;;;;;;;;;;;;;;34.45;42.50;100037.47;125332;1102;104159;-76
2021/06/30 10:57:19;;;;;;;;;;;;;;;34.45;41.26;100031.16;125286;1103;104430;-76
2021/06/30 11:00:00;;;;;;;;;;;;;;;34.47;40.78;100032.80;125260;1102;104219;-76
2021/06/30 11:02:33;;;;;;;;;;;;;;;34.54;40.91;100034.08;125237;1099;104149;-76
2021/06/30 11:05:18;;;;;;;;;;;;;;;34.53;40.78;100031.47;125225;1099;105102;-78
2021/06/30 11:07:50;;;;;;;;;;;;;;;34.54;40.71;100027.77;125336;1099;104621;-77
2021/06/30 11:10:29;;;;;;;;;;;;;;;34.56;40.55;100021.25;125426;1099;104232;-77
2021/06/30 11:13:00;;;;;;;;;;;;;;;34.61;39.96;100010.02;126262;1099;104194;-76
2021/06/30 11:15:43;;;;;;;;;;;;;;;34.60;40.01;100016.44;126336;1099;104185;-77
2021/06/30 11:18:32;;;;;;;;;;;;;;;34.61;39.82;100009.13;126136;1099;104142;-77
2021/06/30 11:21:04;;;;;;;;;;;;;;;34.65;40.09;100002.48;126042;1099;104183;-77
2021/06/30 11:23:40;;;;;;;;;;;;;;;34.63;39.77;99997.14;126345;1099;104134;-77
2021/06/30 11:26:26;;;;;;;;;;;;;;;34.65;39.69;99989.72;126145;1099;104226;-78
2021/06/30 11:28:56;;;;;;;;;;;;;;;34.69;39.31;99998.56;126310;1099;104239;-75
2021/06/30 11:31:39;;;;;;;;;;;;;;;34.67;39.37;99990.50;126207;1099;104136;-75
2021/06/30 11:34:15;;;;;;;;;;;;;;;34.71;39.29;99985.69;126062;1099;104155;-77
2021/06/30 11:36:47;;;;;;;;;;;;;;;34.67;39.30;99987.77;126002;1099;104595;-76